sensor_id;sensor_type;location;lat;lon;timestamp;P1;durP1;ratioP1;P2;durP2;ratioP2
14554;SDS011;7364;50.870;4.722;2023-05-29T00:01:29;8.60;;;4.50;;
14554;SDS011;7364;50.870;4.722;2023-05-29T00:03:56;6.40;;;4.90;;
14554;SDS011;7364;50.870;4.722;2023-05-29T00:06:24;9.53;;;5.53;;
14554;SDS011;7364;50.870;4.722;2023-05-29T00:08:52;13.50;;;5.67;;
14554;SDS011;7364;50.870;4.722;2023-05-29T00:11:20;8.73;;;4.90;;
14554;SDS011;7364;50.870;4.722;2023-05-29T00:13:48;9.27;;;4.93;;
14554;SDS011;7364;50.870;4.722;2023-05-29T00:16:15;9.90;;;5.13;;
14554;SDS011;7364;50.870;4.722;2023-05-29T00:18:43;10.63;;;5.73;;
14554;SDS011;7364;50.870;4.722;2023-05-29T00:21:11;9.43;;;5.57;;
14554;SDS011;7364;50.870;4.722;2023-05-29T00:23:39;6.07;;;4.93;;
14554;SDS011;7364;50.870;4.722;2023-05-29T00:26:07;8.80;;;4.97;;
14554;SDS011;7364;50.870;4.722;2023-05-29T00:28:35;11.53;;;4.73;;
14554;SDS011;7364;50.870;4.722;2023-05-29T00:31:02;7.97;;;5.53;;
14554;SDS011;7364;50.870;4.722;2023-05-29T00:33:29;7.60;;;5.43;;
14554;SDS011;7364;50.870;4.722;2023-05-29T00:35:57;6.73;;;5.47;;
14554;SDS011;7364;50.870;4.722;2023-05-29T00:38:24;7.40;;;5.47;;
14554;SDS011;7364;50.870;4.722;2023-05-29T00:40:51;13.73;;;6.30;;
14554;SDS011;7364;50.870;4.722;2023-05-29T00:43:20;7.87;;;5.33;;
14554;SDS011;7364;50.870;4.722;2023-05-29T00:45:47;9.40;;;6.47;;
14554;SDS011;7364;50.870;4.722;2023-05-29T00:48:15;7.23;;;5.73;;
14554;SDS011;7364;50.870;4.722;2023-05-29T00:50:43;8.43;;;6.00;;
14554;SDS011;7364;50.870;4.722;2023-05-29T00:53:11;8.43;;;5.30;;
14554;SDS011;7364;50.870;4.722;2023-05-29T00:55:39;6.83;;;5.23;;
14554;SDS011;7364;50.870;4.722;2023-05-29T00:58:07;12.20;;;5.67;;
14554;SDS011;7364;50.870;4.722;2023-05-29T01:00:35;10.17;;;6.97;;
14554;SDS011;7364;50.870;4.722;2023-05-29T01:03:04;10.93;;;6.17;;
14554;SDS011;7364;50.870;4.722;2023-05-29T01:05:33;9.23;;;6.37;;
14554;SDS011;7364;50.870;4.722;2023-05-29T01:08:01;8.20;;;6.13;;
14554;SDS011;7364;50.870;4.722;2023-05-29T01:10:29;11.80;;;6.80;;
14554;SDS011;7364;50.870;4.722;2023-05-29T01:12:59;10.90;;;6.60;;
14554;SDS011;7364;50.870;4.722;2023-05-29T01:15:45;9.03;;;5.97;;
14554;SDS011;7364;50.870;4.722;2023-05-29T01:18:22;11.57;;;5.93;;
14554;SDS011;7364;50.870;4.722;2023-05-29T01:20:56;11.23;;;6.27;;
14554;SDS011;7364;50.870;4.722;2023-05-29T01:29:18;8.33;;;6.57;;
14554;SDS011;7364;50.870;4.722;2023-05-29T01:31:49;8.87;;;6.40;;
14554;SDS011;7364;50.870;4.722;2023-05-29T01:34:18;11.20;;;6.40;;
14554;SDS011;7364;50.870;4.722;2023-05-29T01:36:45;9.63;;;6.60;;
14554;SDS011;7364;50.870;4.722;2023-05-29T01:39:12;9.67;;;7.03;;
14554;SDS011;7364;50.870;4.722;2023-05-29T01:41:40;10.70;;;6.93;;
14554;SDS011;7364;50.870;4.722;2023-05-29T01:44:11;10.80;;;7.30;;
14554;SDS011;7364;50.870;4.722;2023-05-29T01:46:40;10.63;;;6.07;;
14554;SDS011;7364;50.870;4.722;2023-05-29T01:49:08;14.37;;;6.63;;
14554;SDS011;7364;50.870;4.722;2023-05-29T01:51:36;13.70;;;7.17;;
14554;SDS011;7364;50.870;4.722;2023-05-29T01:54:04;11.27;;;6.33;;
14554;SDS011;7364;50.870;4.722;2023-05-29T01:56:32;11.10;;;6.50;;
14554;SDS011;7364;50.870;4.722;2023-05-29T01:59:00;10.40;;;7.30;;
14554;SDS011;7364;50.870;4.722;2023-05-29T02:01:30;11.87;;;7.50;;
14554;SDS011;7364;50.870;4.722;2023-05-29T02:03:58;14.37;;;7.30;;
14554;SDS011;7364;50.870;4.722;2023-05-29T02:06:26;8.10;;;6.50;;
14554;SDS011;7364;50.870;4.722;2023-05-29T02:08:53;11.17;;;6.60;;
14554;SDS011;7364;50.870;4.722;2023-05-29T02:11:20;11.00;;;7.53;;
14554;SDS011;7364;50.870;4.722;2023-05-29T02:13:47;13.13;;;7.03;;
14554;SDS011;7364;50.870;4.722;2023-05-29T02:16:15;10.80;;;6.67;;
14554;SDS011;7364;50.870;4.722;2023-05-29T02:18:43;12.83;;;5.93;;
14554;SDS011;7364;50.870;4.722;2023-05-29T02:21:11;10.40;;;6.17;;
14554;SDS011;7364;50.870;4.722;2023-05-29T02:23:38;10.57;;;6.70;;
14554;SDS011;7364;50.870;4.722;2023-05-29T02:26:06;10.50;;;6.57;;
14554;SDS011;7364;50.870;4.722;2023-05-29T02:28:34;11.60;;;6.43;;
14554;SDS011;7364;50.870;4.722;2023-05-29T02:31:01;9.47;;;6.57;;
14554;SDS011;7364;50.870;4.722;2023-05-29T02:33:29;11.67;;;7.40;;
14554;SDS011;7364;50.870;4.722;2023-05-29T02:35:57;10.27;;;6.93;;
14554;SDS011;7364;50.870;4.722;2023-05-29T02:38:25;9.03;;;6.00;;
14554;SDS011;7364;50.870;4.722;2023-05-29T02:40:52;12.50;;;6.93;;
14554;SDS011;7364;50.870;4.722;2023-05-29T02:43:21;15.20;;;7.03;;
14554;SDS011;7364;50.870;4.722;2023-05-29T02:45:49;10.53;;;5.90;;
14554;SDS011;7364;50.870;4.722;2023-05-29T02:48:16;10.13;;;5.77;;
14554;SDS011;7364;50.870;4.722;2023-05-29T02:50:43;11.30;;;6.20;;
14554;SDS011;7364;50.870;4.722;2023-05-29T02:53:12;10.73;;;5.90;;
14554;SDS011;7364;50.870;4.722;2023-05-29T02:55:39;9.03;;;5.83;;
14554;SDS011;7364;50.870;4.722;2023-05-29T02:58:14;7.60;;;5.37;;
14554;SDS011;7364;50.870;4.722;2023-05-29T03:00:42;10.80;;;5.20;;
14554;SDS011;7364;50.870;4.722;2023-05-29T03:03:09;12.20;;;6.43;;
14554;SDS011;7364;50.870;4.722;2023-05-29T03:05:37;9.03;;;5.53;;
14554;SDS011;7364;50.870;4.722;2023-05-29T03:08:04;8.87;;;5.37;;
14554;SDS011;7364;50.870;4.722;2023-05-29T03:10:33;11.27;;;5.40;;
14554;SDS011;7364;50.870;4.722;2023-05-29T03:13:00;9.57;;;4.97;;
14554;SDS011;7364;50.870;4.722;2023-05-29T03:15:27;10.63;;;5.30;;
14554;SDS011;7364;50.870;4.722;2023-05-29T03:17:54;14.80;;;5.57;;
14554;SDS011;7364;50.870;4.722;2023-05-29T03:20:22;7.03;;;5.37;;
14554;SDS011;7364;50.870;4.722;2023-05-29T03:22:51;10.37;;;5.57;;
14554;SDS011;7364;50.870;4.722;2023-05-29T03:25:18;10.23;;;5.50;;
14554;SDS011;7364;50.870;4.722;2023-05-29T03:27:48;8.97;;;4.93;;
14554;SDS011;7364;50.870;4.722;2023-05-29T03:30:15;15.13;;;5.10;;
14554;SDS011;7364;50.870;4.722;2023-05-29T03:32:43;11.47;;;4.73;;
14554;SDS011;7364;50.870;4.722;2023-05-29T03:35:11;7.70;;;5.20;;
14554;SDS011;7364;50.870;4.722;2023-05-29T03:37:38;10.30;;;4.50;;
14554;SDS011;7364;50.870;4.722;2023-05-29T03:40:06;9.57;;;4.37;;
14554;SDS011;7364;50.870;4.722;2023-05-29T03:42:34;9.67;;;4.63;;
14554;SDS011;7364;50.870;4.722;2023-05-29T03:45:03;11.13;;;4.80;;
14554;SDS011;7364;50.870;4.722;2023-05-29T03:47:30;12.43;;;3.97;;
14554;SDS011;7364;50.870;4.722;2023-05-29T03:49:58;13.70;;;4.77;;
14554;SDS011;7364;50.870;4.722;2023-05-29T03:52:25;13.37;;;4.90;;
14554;SDS011;7364;50.870;4.722;2023-05-29T03:54:52;10.67;;;4.67;;
14554;SDS011;7364;50.870;4.722;2023-05-29T03:57:19;14.03;;;5.03;;
14554;SDS011;7364;50.870;4.722;2023-05-29T03:59:47;8.87;;;4.53;;
14554;SDS011;7364;50.870;4.722;2023-05-29T04:02:19;6.97;;;3.80;;
14554;SDS011;7364;50.870;4.722;2023-05-29T04:04:46;6.97;;;4.10;;
14554;SDS011;7364;50.870;4.722;2023-05-29T04:07:14;12.47;;;4.13;;
14554;SDS011;7364;50.870;4.722;2023-05-29T04:09:42;10.63;;;4.57;;
14554;SDS011;7364;50.870;4.722;2023-05-29T04:12:09;10.40;;;4.37;;
14554;SDS011;7364;50.870;4.722;2023-05-29T04:14:38;8.17;;;3.87;;
14554;SDS011;7364;50.870;4.722;2023-05-29T04:17:06;10.37;;;3.93;;
14554;SDS011;7364;50.870;4.722;2023-05-29T04:19:34;12.00;;;4.13;;
14554;SDS011;7364;50.870;4.722;2023-05-29T04:22:01;6.50;;;3.50;;
14554;SDS011;7364;50.870;4.722;2023-05-29T04:24:29;9.80;;;3.67;;
14554;SDS011;7364;50.870;4.722;2023-05-29T04:26:57;11.97;;;4.50;;
14554;SDS011;7364;50.870;4.722;2023-05-29T04:29:27;11.53;;;3.97;;
14554;SDS011;7364;50.870;4.722;2023-05-29T04:31:55;10.03;;;4.13;;
14554;SDS011;7364;50.870;4.722;2023-05-29T04:34:23;8.77;;;3.23;;
14554;SDS011;7364;50.870;4.722;2023-05-29T04:36:51;6.60;;;3.67;;
14554;SDS011;7364;50.870;4.722;2023-05-29T04:39:19;9.77;;;3.80;;
14554;SDS011;7364;50.870;4.722;2023-05-29T04:41:48;9.60;;;4.33;;
14554;SDS011;7364;50.870;4.722;2023-05-29T04:44:15;12.70;;;3.83;;
14554;SDS011;7364;50.870;4.722;2023-05-29T04:46:42;14.70;;;4.00;;
14554;SDS011;7364;50.870;4.722;2023-05-29T04:49:10;8.43;;;4.30;;
14554;SDS011;7364;50.870;4.722;2023-05-29T04:51:38;10.50;;;3.93;;
14554;SDS011;7364;50.870;4.722;2023-05-29T04:54:07;12.37;;;3.70;;
14554;SDS011;7364;50.870;4.722;2023-05-29T04:56:34;12.57;;;4.07;;
14554;SDS011;7364;50.870;4.722;2023-05-29T04:59:02;7.03;;;3.43;;
14554;SDS011;7364;50.870;4.722;2023-05-29T05:01:30;12.60;;;3.80;;
14554;SDS011;7364;50.870;4.722;2023-05-29T05:03:59;7.93;;;3.73;;
14554;SDS011;7364;50.870;4.722;2023-05-29T05:06:26;5.27;;;2.73;;
14554;SDS011;7364;50.870;4.722;2023-05-29T05:08:54;9.00;;;3.83;;
14554;SDS011;7364;50.870;4.722;2023-05-29T05:11:23;9.47;;;3.70;;
14554;SDS011;7364;50.870;4.722;2023-05-29T05:13:51;10.27;;;3.73;;
14554;SDS011;7364;50.870;4.722;2023-05-29T05:16:18;7.30;;;3.60;;
14554;SDS011;7364;50.870;4.722;2023-05-29T05:18:45;11.00;;;4.37;;
14554;SDS011;7364;50.870;4.722;2023-05-29T05:21:12;11.77;;;4.03;;
14554;SDS011;7364;50.870;4.722;2023-05-29T05:23:41;11.70;;;4.00;;
14554;SDS011;7364;50.870;4.722;2023-05-29T05:26:08;6.23;;;3.47;;
14554;SDS011;7364;50.870;4.722;2023-05-29T05:28:37;12.87;;;3.70;;
14554;SDS011;7364;50.870;4.722;2023-05-29T05:31:04;9.47;;;4.10;;
14554;SDS011;7364;50.870;4.722;2023-05-29T05:33:31;12.40;;;3.43;;
14554;SDS011;7364;50.870;4.722;2023-05-29T05:35:58;7.27;;;4.00;;
14554;SDS011;7364;50.870;4.722;2023-05-29T05:38:26;13.07;;;4.00;;
14554;SDS011;7364;50.870;4.722;2023-05-29T05:40:53;10.43;;;3.70;;
14554;SDS011;7364;50.870;4.722;2023-05-29T05:43:21;10.23;;;3.30;;
14554;SDS011;7364;50.870;4.722;2023-05-29T05:45:49;16.83;;;3.93;;
14554;SDS011;7364;50.870;4.722;2023-05-29T05:48:17;8.80;;;3.50;;
14554;SDS011;7364;50.870;4.722;2023-05-29T05:50:44;12.43;;;4.20;;
14554;SDS011;7364;50.870;4.722;2023-05-29T05:53:11;13.57;;;4.33;;
14554;SDS011;7364;50.870;4.722;2023-05-29T05:55:39;6.73;;;3.33;;
14554;SDS011;7364;50.870;4.722;2023-05-29T05:58:06;10.30;;;3.40;;
14554;SDS011;7364;50.870;4.722;2023-05-29T06:00:33;10.13;;;4.13;;
14554;SDS011;7364;50.870;4.722;2023-05-29T06:03:02;7.60;;;3.50;;
14554;SDS011;7364;50.870;4.722;2023-05-29T06:05:29;8.77;;;3.60;;
14554;SDS011;7364;50.870;4.722;2023-05-29T06:07:56;9.20;;;3.73;;
14554;SDS011;7364;50.870;4.722;2023-05-29T06:10:24;6.90;;;3.40;;
14554;SDS011;7364;50.870;4.722;2023-05-29T06:12:52;14.03;;;4.00;;
14554;SDS011;7364;50.870;4.722;2023-05-29T06:15:19;15.40;;;4.30;;
14554;SDS011;7364;50.870;4.722;2023-05-29T06:17:46;10.33;;;3.77;;
14554;SDS011;7364;50.870;4.722;2023-05-29T06:20:15;10.47;;;3.90;;
14554;SDS011;7364;50.870;4.722;2023-05-29T06:22:42;10.80;;;4.00;;
14554;SDS011;7364;50.870;4.722;2023-05-29T06:25:15;8.87;;;3.97;;
14554;SDS011;7364;50.870;4.722;2023-05-29T06:27:43;12.83;;;4.00;;
14554;SDS011;7364;50.870;4.722;2023-05-29T06:30:11;10.73;;;3.90;;
14554;SDS011;7364;50.870;4.722;2023-05-29T06:32:39;16.17;;;4.73;;
14554;SDS011;7364;50.870;4.722;2023-05-29T06:35:06;7.43;;;3.83;;
14554;SDS011;7364;50.870;4.722;2023-05-29T06:37:35;12.50;;;3.67;;
14554;SDS011;7364;50.870;4.722;2023-05-29T06:40:03;9.30;;;3.80;;
14554;SDS011;7364;50.870;4.722;2023-05-29T06:42:31;7.23;;;3.63;;
14554;SDS011;7364;50.870;4.722;2023-05-29T06:44:58;13.73;;;4.00;;
14554;SDS011;7364;50.870;4.722;2023-05-29T06:47:25;10.37;;;3.70;;
14554;SDS011;7364;50.870;4.722;2023-05-29T06:49:53;9.37;;;4.10;;
14554;SDS011;7364;50.870;4.722;2023-05-29T06:52:20;11.17;;;4.07;;
14554;SDS011;7364;50.870;4.722;2023-05-29T06:54:49;8.90;;;3.67;;
14554;SDS011;7364;50.870;4.722;2023-05-29T06:57:16;10.90;;;3.77;;
14554;SDS011;7364;50.870;4.722;2023-05-29T06:59:43;11.93;;;4.33;;
14554;SDS011;7364;50.870;4.722;2023-05-29T07:02:10;9.57;;;3.70;;
14554;SDS011;7364;50.870;4.722;2023-05-29T07:04:38;6.47;;;3.33;;
14554;SDS011;7364;50.870;4.722;2023-05-29T07:07:05;8.67;;;4.00;;
14554;SDS011;7364;50.870;4.722;2023-05-29T07:09:32;8.50;;;3.83;;
14554;SDS011;7364;50.870;4.722;2023-05-29T07:12:01;8.80;;;3.83;;
14554;SDS011;7364;50.870;4.722;2023-05-29T07:14:28;9.03;;;4.17;;
14554;SDS011;7364;50.870;4.722;2023-05-29T07:16:55;9.27;;;3.33;;
14554;SDS011;7364;50.870;4.722;2023-05-29T07:19:22;9.10;;;3.57;;
14554;SDS011;7364;50.870;4.722;2023-05-29T07:21:50;7.13;;;3.17;;
14554;SDS011;7364;50.870;4.722;2023-05-29T07:24:17;12.00;;;3.93;;
14554;SDS011;7364;50.870;4.722;2023-05-29T07:26:44;7.87;;;3.30;;
14554;SDS011;7364;50.870;4.722;2023-05-29T07:29:13;12.03;;;4.00;;
14554;SDS011;7364;50.870;4.722;2023-05-29T07:31:45;10.90;;;3.93;;
14554;SDS011;7364;50.870;4.722;2023-05-29T07:34:12;10.13;;;3.30;;
14554;SDS011;7364;50.870;4.722;2023-05-29T07:39:23;8.43;;;3.20;;
14554;SDS011;7364;50.870;4.722;2023-05-29T07:41:50;7.70;;;3.33;;
14554;SDS011;7364;50.870;4.722;2023-05-29T07:44:19;9.77;;;3.30;;
14554;SDS011;7364;50.870;4.722;2023-05-29T07:46:46;6.27;;;3.10;;
14554;SDS011;7364;50.870;4.722;2023-05-29T07:49:14;5.97;;;3.27;;
14554;SDS011;7364;50.870;4.722;2023-05-29T07:51:42;8.77;;;3.50;;
14554;SDS011;7364;50.870;4.722;2023-05-29T07:54:09;8.27;;;3.53;;
14554;SDS011;7364;50.870;4.722;2023-05-29T07:56:36;19.40;;;4.10;;
14554;SDS011;7364;50.870;4.722;2023-05-29T07:59:05;10.37;;;3.60;;
14554;SDS011;7364;50.870;4.722;2023-05-29T08:01:35;8.73;;;3.80;;
14554;SDS011;7364;50.870;4.722;2023-05-29T08:04:04;7.00;;;3.03;;
14554;SDS011;7364;50.870;4.722;2023-05-29T08:06:31;6.87;;;4.10;;
14554;SDS011;7364;50.870;4.722;2023-05-29T08:08:59;11.17;;;4.23;;
14554;SDS011;7364;50.870;4.722;2023-05-29T08:11:26;9.03;;;3.53;;
14554;SDS011;7364;50.870;4.722;2023-05-29T08:13:54;10.10;;;4.23;;
14554;SDS011;7364;50.870;4.722;2023-05-29T08:16:21;11.80;;;3.90;;
14554;SDS011;7364;50.870;4.722;2023-05-29T08:18:50;7.30;;;3.93;;
14554;SDS011;7364;50.870;4.722;2023-05-29T08:21:17;10.43;;;3.80;;
14554;SDS011;7364;50.870;4.722;2023-05-29T08:23:45;12.03;;;3.97;;
14554;SDS011;7364;50.870;4.722;2023-05-29T08:26:12;8.27;;;3.37;;
14554;SDS011;7364;50.870;4.722;2023-05-29T08:28:40;17.40;;;3.30;;
14554;SDS011;7364;50.870;4.722;2023-05-29T08:31:07;7.83;;;4.10;;
14554;SDS011;7364;50.870;4.722;2023-05-29T08:33:34;8.30;;;4.13;;
14554;SDS011;7364;50.870;4.722;2023-05-29T08:36:04;4.80;;;2.87;;
14554;SDS011;7364;50.870;4.722;2023-05-29T08:38:33;8.70;;;3.33;;
14554;SDS011;7364;50.870;4.722;2023-05-29T08:41:01;8.07;;;3.80;;
14554;SDS011;7364;50.870;4.722;2023-05-29T08:43:29;8.20;;;3.60;;
14554;SDS011;7364;50.870;4.722;2023-05-29T08:45:59;8.40;;;4.03;;
14554;SDS011;7364;50.870;4.722;2023-05-29T08:48:27;8.13;;;4.27;;
14554;SDS011;7364;50.870;4.722;2023-05-29T08:50:56;7.60;;;3.97;;
14554;SDS011;7364;50.870;4.722;2023-05-29T08:53:26;10.00;;;3.37;;
14554;SDS011;7364;50.870;4.722;2023-05-29T08:55:53;6.90;;;3.47;;
14554;SDS011;7364;50.870;4.722;2023-05-29T08:58:22;10.60;;;3.73;;
14554;SDS011;7364;50.870;4.722;2023-05-29T09:00:50;7.77;;;3.50;;
14554;SDS011;7364;50.870;4.722;2023-05-29T09:03:17;10.37;;;4.20;;
14554;SDS011;7364;50.870;4.722;2023-05-29T09:05:45;6.03;;;4.30;;
14554;SDS011;7364;50.870;4.722;2023-05-29T09:08:14;7.67;;;3.90;;
14554;SDS011;7364;50.870;4.722;2023-05-29T09:10:44;7.90;;;3.23;;
14554;SDS011;7364;50.870;4.722;2023-05-29T09:13:11;8.17;;;3.93;;
14554;SDS011;7364;50.870;4.722;2023-05-29T09:15:39;7.67;;;3.53;;
14554;SDS011;7364;50.870;4.722;2023-05-29T09:18:08;7.60;;;3.67;;
14554;SDS011;7364;50.870;4.722;2023-05-29T09:20:36;9.93;;;4.33;;
14554;SDS011;7364;50.870;4.722;2023-05-29T09:23:03;7.80;;;4.07;;
14554;SDS011;7364;50.870;4.722;2023-05-29T09:25:32;8.00;;;4.20;;
14554;SDS011;7364;50.870;4.722;2023-05-29T09:28:02;13.40;;;4.20;;
14554;SDS011;7364;50.870;4.722;2023-05-29T09:30:34;11.27;;;4.43;;
14554;SDS011;7364;50.870;4.722;2023-05-29T09:33:03;8.57;;;4.83;;
14554;SDS011;7364;50.870;4.722;2023-05-29T09:35:35;11.33;;;4.17;;
14554;SDS011;7364;50.870;4.722;2023-05-29T09:38:03;11.70;;;4.20;;
14554;SDS011;7364;50.870;4.722;2023-05-29T09:40:32;7.77;;;4.43;;
14554;SDS011;7364;50.870;4.722;2023-05-29T09:43:04;8.33;;;3.93;;
14554;SDS011;7364;50.870;4.722;2023-05-29T09:45:38;8.90;;;4.07;;
14554;SDS011;7364;50.870;4.722;2023-05-29T09:48:06;8.73;;;3.70;;
14554;SDS011;7364;50.870;4.722;2023-05-29T09:50:34;9.10;;;3.97;;
14554;SDS011;7364;50.870;4.722;2023-05-29T09:53:01;10.10;;;4.17;;
14554;SDS011;7364;50.870;4.722;2023-05-29T09:57:58;8.57;;;4.00;;
14554;SDS011;7364;50.870;4.722;2023-05-29T10:00:28;10.03;;;4.37;;
14554;SDS011;7364;50.870;4.722;2023-05-29T10:02:57;11.60;;;4.07;;
14554;SDS011;7364;50.870;4.722;2023-05-29T10:05:25;9.53;;;4.13;;
14554;SDS011;7364;50.870;4.722;2023-05-29T10:07:53;8.57;;;3.87;;
14554;SDS011;7364;50.870;4.722;2023-05-29T10:10:20;9.83;;;4.23;;
14554;SDS011;7364;50.870;4.722;2023-05-29T10:12:50;9.43;;;3.63;;
14554;SDS011;7364;50.870;4.722;2023-05-29T10:15:18;11.40;;;3.67;;
14554;SDS011;7364;50.870;4.722;2023-05-29T10:17:50;7.20;;;3.97;;
14554;SDS011;7364;50.870;4.722;2023-05-29T10:20:19;8.93;;;3.60;;
14554;SDS011;7364;50.870;4.722;2023-05-29T10:22:50;8.20;;;3.70;;
14554;SDS011;7364;50.870;4.722;2023-05-29T10:25:18;7.53;;;3.97;;
14554;SDS011;7364;50.870;4.722;2023-05-29T10:27:47;9.90;;;3.57;;
14554;SDS011;7364;50.870;4.722;2023-05-29T10:30:21;9.60;;;4.13;;
14554;SDS011;7364;50.870;4.722;2023-05-29T10:33:04;6.67;;;3.47;;
14554;SDS011;7364;50.870;4.722;2023-05-29T10:35:43;11.60;;;3.90;;
14554;SDS011;7364;50.870;4.722;2023-05-29T10:38:17;21.33;;;5.20;;
14554;SDS011;7364;50.870;4.722;2023-05-29T10:40:44;8.83;;;4.30;;
14554;SDS011;7364;50.870;4.722;2023-05-29T10:45:58;6.63;;;4.37;;
14554;SDS011;7364;50.870;4.722;2023-05-29T10:51:27;7.00;;;3.60;;
14554;SDS011;7364;50.870;4.722;2023-05-29T10:53:56;6.00;;;3.90;;
14554;SDS011;7364;50.870;4.722;2023-05-29T10:56:24;7.60;;;3.57;;
14554;SDS011;7364;50.870;4.722;2023-05-29T10:58:57;6.93;;;3.87;;
14554;SDS011;7364;50.870;4.722;2023-05-29T11:01:27;12.57;;;4.73;;
14554;SDS011;7364;50.870;4.722;2023-05-29T11:06:55;7.47;;;4.10;;
14554;SDS011;7364;50.870;4.722;2023-05-29T11:09:26;8.23;;;3.03;;
14554;SDS011;7364;50.870;4.722;2023-05-29T11:12:10;11.27;;;3.47;;
14554;SDS011;7364;50.870;4.722;2023-05-29T11:14:45;7.93;;;3.90;;
14554;SDS011;7364;50.870;4.722;2023-05-29T11:17:28;8.20;;;3.47;;
14554;SDS011;7364;50.870;4.722;2023-05-29T11:20:13;9.70;;;4.13;;
14554;SDS011;7364;50.870;4.722;2023-05-29T11:22:56;8.90;;;3.77;;
14554;SDS011;7364;50.870;4.722;2023-05-29T11:25:28;8.10;;;3.37;;
14554;SDS011;7364;50.870;4.722;2023-05-29T11:27:59;6.93;;;4.33;;
14554;SDS011;7364;50.870;4.722;2023-05-29T11:30:28;6.63;;;3.70;;
14554;SDS011;7364;50.870;4.722;2023-05-29T11:32:56;11.50;;;5.87;;
14554;SDS011;7364;50.870;4.722;2023-05-29T11:35:34;9.20;;;3.93;;
14554;SDS011;7364;50.870;4.722;2023-05-29T11:38:05;10.17;;;6.00;;
14554;SDS011;7364;50.870;4.722;2023-05-29T11:40:35;7.63;;;4.60;;
14554;SDS011;7364;50.870;4.722;2023-05-29T11:43:03;8.47;;;3.60;;
14554;SDS011;7364;50.870;4.722;2023-05-29T11:45:32;11.43;;;5.73;;
14554;SDS011;7364;50.870;4.722;2023-05-29T11:48:02;10.33;;;4.40;;
14554;SDS011;7364;50.870;4.722;2023-05-29T11:50:30;11.30;;;4.83;;
14554;SDS011;7364;50.870;4.722;2023-05-29T11:53:00;11.27;;;5.17;;
14554;SDS011;7364;50.870;4.722;2023-05-29T11:55:27;9.23;;;3.80;;
14554;SDS011;7364;50.870;4.722;2023-05-29T11:57:56;6.77;;;3.77;;
14554;SDS011;7364;50.870;4.722;2023-05-29T12:00:24;7.67;;;4.27;;
14554;SDS011;7364;50.870;4.722;2023-05-29T12:02:52;7.77;;;3.93;;
14554;SDS011;7364;50.870;4.722;2023-05-29T12:05:20;8.50;;;3.93;;
14554;SDS011;7364;50.870;4.722;2023-05-29T12:07:47;9.33;;;3.63;;
14554;SDS011;7364;50.870;4.722;2023-05-29T12:10:17;8.17;;;3.83;;
14554;SDS011;7364;50.870;4.722;2023-05-29T12:12:50;6.13;;;3.33;;
14554;SDS011;7364;50.870;4.722;2023-05-29T12:15:19;9.53;;;3.53;;
14554;SDS011;7364;50.870;4.722;2023-05-29T12:17:47;5.50;;;3.90;;
14554;SDS011;7364;50.870;4.722;2023-05-29T12:20:15;11.10;;;4.17;;
14554;SDS011;7364;50.870;4.722;2023-05-29T12:22:44;9.20;;;3.80;;
14554;SDS011;7364;50.870;4.722;2023-05-29T12:25:15;6.07;;;3.67;;
14554;SDS011;7364;50.870;4.722;2023-05-29T12:27:45;5.70;;;3.53;;
14554;SDS011;7364;50.870;4.722;2023-05-29T12:30:14;5.90;;;3.13;;
14554;SDS011;7364;50.870;4.722;2023-05-29T12:32:46;6.18;;;3.85;;
14554;SDS011;7364;50.870;4.722;2023-05-29T12:35:15;7.50;;;3.40;;
14554;SDS011;7364;50.870;4.722;2023-05-29T12:37:44;6.03;;;3.95;;
14554;SDS011;7364;50.870;4.722;2023-05-29T12:40:18;7.53;;;3.72;;
14554;SDS011;7364;50.870;4.722;2023-05-29T12:42:47;10.02;;;3.95;;
14554;SDS011;7364;50.870;4.722;2023-05-29T12:45:19;7.70;;;3.35;;
14554;SDS011;7364;50.870;4.722;2023-05-29T12:47:51;7.68;;;3.80;;
14554;SDS011;7364;50.870;4.722;2023-05-29T12:50:23;6.55;;;3.55;;
14554;SDS011;7364;50.870;4.722;2023-05-29T12:52:54;8.95;;;4.03;;
14554;SDS011;7364;50.870;4.722;2023-05-29T12:55:27;5.90;;;3.53;;
14554;SDS011;7364;50.870;4.722;2023-05-29T12:57:55;9.38;;;3.92;;
14554;SDS011;7364;50.870;4.722;2023-05-29T13:00:23;7.80;;;4.10;;
14554;SDS011;7364;50.870;4.722;2023-05-29T13:02:50;5.90;;;3.58;;
14554;SDS011;7364;50.870;4.722;2023-05-29T13:05:18;7.68;;;3.53;;
14554;SDS011;7364;50.870;4.722;2023-05-29T13:07:47;5.57;;;3.40;;
14554;SDS011;7364;50.870;4.722;2023-05-29T13:10:15;8.43;;;4.07;;
14554;SDS011;7364;50.870;4.722;2023-05-29T13:12:44;7.60;;;3.78;;
14554;SDS011;7364;50.870;4.722;2023-05-29T13:15:12;8.23;;;4.15;;
14554;SDS011;7364;50.870;4.722;2023-05-29T13:17:40;8.18;;;3.85;;
14554;SDS011;7364;50.870;4.722;2023-05-29T13:20:09;7.63;;;3.83;;
14554;SDS011;7364;50.870;4.722;2023-05-29T13:22:38;8.73;;;3.53;;
14554;SDS011;7364;50.870;4.722;2023-05-29T13:25:06;9.30;;;3.78;;
14554;SDS011;7364;50.870;4.722;2023-05-29T13:27:36;9.65;;;4.00;;
14554;SDS011;7364;50.870;4.722;2023-05-29T13:30:06;9.82;;;4.03;;
14554;SDS011;7364;50.870;4.722;2023-05-29T13:32:34;4.97;;;2.78;;
14554;SDS011;7364;50.870;4.722;2023-05-29T13:35:02;8.68;;;4.28;;
14554;SDS011;7364;50.870;4.722;2023-05-29T13:37:30;6.40;;;3.83;;
14554;SDS011;7364;50.870;4.722;2023-05-29T13:39:58;8.65;;;4.07;;
14554;SDS011;7364;50.870;4.722;2023-05-29T13:42:25;6.82;;;3.70;;
14554;SDS011;7364;50.870;4.722;2023-05-29T13:44:52;8.95;;;3.70;;
14554;SDS011;7364;50.870;4.722;2023-05-29T13:47:21;9.50;;;4.32;;
14554;SDS011;7364;50.870;4.722;2023-05-29T13:49:48;7.47;;;3.67;;
14554;SDS011;7364;50.870;4.722;2023-05-29T13:52:16;7.43;;;3.28;;
14554;SDS011;7364;50.870;4.722;2023-05-29T13:54:43;7.30;;;3.88;;
14554;SDS011;7364;50.870;4.722;2023-05-29T13:57:12;10.07;;;4.40;;
14554;SDS011;7364;50.870;4.722;2023-05-29T13:59:40;5.20;;;3.40;;
14554;SDS011;7364;50.870;4.722;2023-05-29T14:02:07;11.35;;;4.55;;
14554;SDS011;7364;50.870;4.722;2023-05-29T14:04:36;9.45;;;3.80;;
14554;SDS011;7364;50.870;4.722;2023-05-29T14:07:03;8.85;;;3.92;;
14554;SDS011;7364;50.870;4.722;2023-05-29T14:09:31;6.57;;;3.75;;
14554;SDS011;7364;50.870;4.722;2023-05-29T14:11:59;7.88;;;3.72;;
14554;SDS011;7364;50.870;4.722;2023-05-29T14:14:27;6.60;;;4.03;;
14554;SDS011;7364;50.870;4.722;2023-05-29T14:16:54;8.38;;;3.67;;
14554;SDS011;7364;50.870;4.722;2023-05-29T14:19:22;6.22;;;3.50;;
14554;SDS011;7364;50.870;4.722;2023-05-29T14:21:51;6.97;;;3.83;;
14554;SDS011;7364;50.870;4.722;2023-05-29T14:24:18;9.65;;;3.28;;
14554;SDS011;7364;50.870;4.722;2023-05-29T14:26:45;5.40;;;3.47;;
14554;SDS011;7364;50.870;4.722;2023-05-29T14:29:13;7.88;;;3.45;;
14554;SDS011;7364;50.870;4.722;2023-05-29T14:31:41;8.32;;;3.53;;
14554;SDS011;7364;50.870;4.722;2023-05-29T14:34:09;8.15;;;3.67;;
14554;SDS011;7364;50.870;4.722;2023-05-29T14:36:39;5.97;;;3.50;;
14554;SDS011;7364;50.870;4.722;2023-05-29T14:39:10;6.50;;;3.67;;
14554;SDS011;7364;50.870;4.722;2023-05-29T14:41:38;5.63;;;3.38;;
14554;SDS011;7364;50.870;4.722;2023-05-29T14:44:06;5.68;;;3.40;;
14554;SDS011;7364;50.870;4.722;2023-05-29T14:46:33;6.35;;;3.72;;
14554;SDS011;7364;50.870;4.722;2023-05-29T14:49:00;5.28;;;3.25;;
14554;SDS011;7364;50.870;4.722;2023-05-29T14:51:28;6.45;;;3.35;;
14554;SDS011;7364;50.870;4.722;2023-05-29T14:53:55;9.23;;;4.28;;
14554;SDS011;7364;50.870;4.722;2023-05-29T14:56:23;7.05;;;3.78;;
14554;SDS011;7364;50.870;4.722;2023-05-29T14:58:52;8.15;;;3.90;;
14554;SDS011;7364;50.870;4.722;2023-05-29T15:01:19;8.38;;;3.70;;
14554;SDS011;7364;50.870;4.722;2023-05-29T15:03:46;6.07;;;3.70;;
14554;SDS011;7364;50.870;4.722;2023-05-29T15:06:13;7.45;;;3.65;;
14554;SDS011;7364;50.870;4.722;2023-05-29T15:08:41;7.25;;;4.05;;
14554;SDS011;7364;50.870;4.722;2023-05-29T15:11:08;7.55;;;3.17;;
14554;SDS011;7364;50.870;4.722;2023-05-29T15:13:39;7.33;;;3.33;;
14554;SDS011;7364;50.870;4.722;2023-05-29T15:16:06;7.53;;;3.67;;
14554;SDS011;7364;50.870;4.722;2023-05-29T15:18:33;5.77;;;3.23;;
14554;SDS011;7364;50.870;4.722;2023-05-29T15:21:01;10.43;;;4.27;;
14554;SDS011;7364;50.870;4.722;2023-05-29T15:23:28;8.13;;;3.90;;